ADDS METAR Data INFO
IDs: Format: Raw Decoded Include TAF

Data at: 2302 UTC 15 Jul 2018

KFFT 152253Z AUTO 22003KT 10SM SCT021 SCT026 BKN110 28/23 A3000 RMK AO2 LTG DSNT SE SLP149 T02830233
KFFT 152241Z AUTO 00000KT 10SM BKN021 BKN029 BKN039 28/23 A3000 RMK AO2 T02830233
KFFT 152153Z AUTO 24004KT 10SM FEW020 28/23 A3001 RMK AO2 SLP152 T02830233
KFFT 152053Z AUTO VRB03KT 10SM FEW015 28/23 A3001 RMK AO2 SLP155 60002 T02830228 56014
KFFT 151953Z AUTO 31004KT 10SM CLR 27/23 A3002 RMK AO2 LTG DSNT E SLP157 T02720233
KFFT 151853Z AUTO 23004KT 10SM SCT039 BKN046 OVC110 27/23 A3004 RMK AO2 LTG DSNT SE RAE49 SLP164 P0002 T02670233
KFFT 151753Z AUTO 25006KT 5SM -RA FEW049 BKN090 OVC110 27/23 A3006 RMK AO2 RAB21 SLP170 P0000 60000 T02670233 10278 20239 51008
KFFT 151653Z AUTO 22004KT 10SM CLR 28/22 A3005 RMK AO2 SLP167 T02780217
KFFT 151553Z AUTO VRB03KT 10SM CLR 27/22 A3004 RMK AO2 SLP165 T02720222
KFFT 151453Z AUTO 00000KT 10SM FEW070 SCT095 SCT120 27/22 A3003 RMK AO2 SLP160 60000 T02720217 58007
KFFT 151409Z AUTO 22006KT 10SM SCT028 27/22 A3005 RMK AO2 T02670222
KFFT 151353Z AUTO 23005KT 10SM SCT022 BKN028 26/22 A3006 RMK AO2 RAB07E15 SLP169 P0000 T02560217
KFFT 151304Z AUTO 24006KT 10SM BKN023 BKN032 24/21 A3005 RMK AO2 T02440206
KFFT 151253Z AUTO 24007KT 10SM SCT022 BKN032 24/21 A3006 RMK AO2 LTG DSNT SW SLP170 T02440206
KFFT 151244Z AUTO 23007KT 10SM SCT034 BKN041 24/21 A3006 RMK AO2 LTG DSNT SW T02440211
KFFT 151227Z AUTO 24004KT 10SM VCTS BKN038 BKN049 OVC085 24/21 A3006 RMK AO2 LTG DSNT SW T02390206
KFFT 151153Z AUTO 00000KT 10SM FEW049 23/20 A3005 RMK AO2 LTG DSNT SW SLP167 T02330200 10233 20211 50006
KFFT 151053Z AUTO 16003KT 10SM FEW038 23/19 A3005 RMK AO2 SLP167 T02280194
KFFT 150953Z AUTO 00000KT 10SM SCT050 23/19 A3004 RMK AO2 SLP163 T02280194
KFFT 150853Z AUTO 00000KT 10SM CLR 22/20 A3003 RMK AO2 SLP160 T02220200 55002
KFFT 150753Z AUTO 00000KT 10SM CLR 21/19 A3003 RMK AO2 SLP159 T02110194
KFFT 150653Z AUTO 00000KT 10SM CLR 22/19 A3002 RMK AO2 SLP156 T02220194
KFFT 150553Z AUTO 11003KT 10SM CLR 23/20 A3004 RMK AO2 SLP162 T02330200 10294 20222 58002
KFFT 150453Z AUTO 00000KT 10SM CLR 23/21 A3004 RMK AO2 SLP164 T02280206 403330183
KFFT 150353Z AUTO 00000KT 10SM CLR 24/21 A3005 RMK AO2 SLP164 T02440206
KFFT 150253Z AUTO 00000KT 10SM CLR 25/20 A3005 RMK AO2 SLP164 T02500200 51013
KFFT 150153Z AUTO 21003KT 10SM CLR 26/21 A3004 RMK AO2 SLP164 T02610206
KFFT 150053Z AUTO 25003KT 10SM CLR 28/21 A3003 RMK AO2 SLP159 T02780206
KFFT 142353Z AUTO 21003KT 10SM CLR 29/19 A3001 RMK AO2 SLP152 T02940189 10333 20294 58014
KFFT 142253Z AUTO 16006KT 10SM CLR 32/18 A3001 RMK AO2 SLP155 T03170178
KFFT 142153Z AUTO 00000KT 10SM CLR 33/17 A3005 RMK AO2 SLP166 T03280172
KFFT 142053Z AUTO 15007KT 10SM CLR 33/18 A3005 RMK AO2 SLP166 T03330178 56020
KFFT 141953Z AUTO 12004KT 10SM FEW055 33/18 A3006 RMK AO2 SLP171 T03280183
KFFT 141853Z AUTO 29003KT 10SM SCT050 32/19 A3009 RMK AO2 SLP180 T03220189
KFFT 141753Z AUTO 10SM FEW050 32/19 A3011 RMK AO2 SLP187 T03220189 10322 20222 57001
KFFT 141653Z AUTO VRB03KT 10SM FEW045 31/18 A3011 RMK AO2 SLP188 T03110183
KFFT 141553Z AUTO 28004KT 10SM CLR 31/19 A3011 RMK AO2 SLP186 T03060194
KFFT 141453Z AUTO VRB03KT 10SM CLR 29/20 A3011 RMK AO2 SLP188 T02890200 53005
KFFT 141353Z AUTO 00000KT 10SM CLR 27/20 A3011 RMK AO2 SLP186 T02720200
KFFT 141253Z AUTO 00000KT 9SM CLR 24/20 A3010 RMK AO2 SLP183 T02390200
KFFT 141153Z AUTO 00000KT 8SM CLR 22/19 A3010 RMK AO2 SLP182 T02220194 10222 20183 53010